sensor_id;sensor_type;location;lat;lon;timestamp;P1;durP1;ratioP1;P2;durP2;ratioP2
62798;SDS011;48842;51.046;13.796;2023-02-20T00:01:54;4.83;;;4.30;;
62798;SDS011;48842;51.046;13.796;2023-02-20T00:04:20;6.53;;;4.50;;
62798;SDS011;48842;51.046;13.796;2023-02-20T00:06:46;8.73;;;4.53;;
62798;SDS011;48842;51.046;13.796;2023-02-20T00:09:12;7.27;;;4.17;;
62798;SDS011;48842;51.046;13.796;2023-02-20T00:11:37;10.07;;;4.63;;
62798;SDS011;48842;51.046;13.796;2023-02-20T00:14:02;7.43;;;5.50;;
62798;SDS011;48842;51.046;13.796;2023-02-20T00:16:28;7.37;;;4.63;;
62798;SDS011;48842;51.046;13.796;2023-02-20T00:18:53;5.57;;;4.57;;
62798;SDS011;48842;51.046;13.796;2023-02-20T00:21:18;4.67;;;4.20;;
62798;SDS011;48842;51.046;13.796;2023-02-20T00:23:43;10.23;;;5.80;;
62798;SDS011;48842;51.046;13.796;2023-02-20T00:26:09;6.03;;;4.60;;
62798;SDS011;48842;51.046;13.796;2023-02-20T00:28:39;5.20;;;4.27;;
62798;SDS011;48842;51.046;13.796;2023-02-20T00:31:05;6.97;;;5.40;;
62798;SDS011;48842;51.046;13.796;2023-02-20T00:33:32;5.57;;;4.10;;
62798;SDS011;48842;51.046;13.796;2023-02-20T00:35:57;4.97;;;4.47;;
62798;SDS011;48842;51.046;13.796;2023-02-20T00:38:23;9.27;;;3.97;;
62798;SDS011;48842;51.046;13.796;2023-02-20T00:40:48;7.80;;;4.20;;
62798;SDS011;48842;51.046;13.796;2023-02-20T00:43:13;5.57;;;4.27;;
62798;SDS011;48842;51.046;13.796;2023-02-20T00:45:39;4.50;;;4.13;;
62798;SDS011;48842;51.046;13.796;2023-02-20T00:48:04;4.73;;;4.20;;
62798;SDS011;48842;51.046;13.796;2023-02-20T00:50:30;5.87;;;4.20;;
62798;SDS011;48842;51.046;13.796;2023-02-20T00:52:55;9.10;;;4.70;;
62798;SDS011;48842;51.046;13.796;2023-02-20T00:55:20;4.30;;;4.00;;
62798;SDS011;48842;51.046;13.796;2023-02-20T00:57:46;3.93;;;3.60;;
62798;SDS011;48842;51.046;13.796;2023-02-20T01:00:19;5.57;;;4.20;;
62798;SDS011;48842;51.046;13.796;2023-02-20T01:02:54;5.63;;;3.90;;
62798;SDS011;48842;51.046;13.796;2023-02-20T01:05:20;4.70;;;4.00;;
62798;SDS011;48842;51.046;13.796;2023-02-20T01:07:45;4.53;;;4.10;;
62798;SDS011;48842;51.046;13.796;2023-02-20T01:10:12;6.13;;;3.90;;
62798;SDS011;48842;51.046;13.796;2023-02-20T01:12:38;5.23;;;3.90;;
62798;SDS011;48842;51.046;13.796;2023-02-20T01:15:04;5.47;;;4.00;;
62798;SDS011;48842;51.046;13.796;2023-02-20T01:17:31;5.33;;;4.43;;
62798;SDS011;48842;51.046;13.796;2023-02-20T01:19:57;4.23;;;3.83;;
62798;SDS011;48842;51.046;13.796;2023-02-20T01:22:22;6.00;;;4.60;;
62798;SDS011;48842;51.046;13.796;2023-02-20T01:24:47;5.20;;;3.87;;
62798;SDS011;48842;51.046;13.796;2023-02-20T01:27:12;4.00;;;3.60;;
62798;SDS011;48842;51.046;13.796;2023-02-20T01:29:38;5.53;;;4.30;;
62798;SDS011;48842;51.046;13.796;2023-02-20T01:32:03;3.80;;;3.50;;
62798;SDS011;48842;51.046;13.796;2023-02-20T01:34:28;4.30;;;4.00;;
62798;SDS011;48842;51.046;13.796;2023-02-20T01:36:54;5.30;;;3.90;;
62798;SDS011;48842;51.046;13.796;2023-02-20T01:39:26;4.53;;;4.13;;
62798;SDS011;48842;51.046;13.796;2023-02-20T01:41:53;4.43;;;4.03;;
62798;SDS011;48842;51.046;13.796;2023-02-20T01:44:22;4.00;;;3.70;;
62798;SDS011;48842;51.046;13.796;2023-02-20T01:46:52;5.33;;;3.63;;
62798;SDS011;48842;51.046;13.796;2023-02-20T01:49:54;5.67;;;3.43;;
62798;SDS011;48842;51.046;13.796;2023-02-20T01:54:44;4.77;;;3.33;;
62798;SDS011;48842;51.046;13.796;2023-02-20T01:57:16;5.83;;;4.17;;
62798;SDS011;48842;51.046;13.796;2023-02-20T01:59:45;4.40;;;4.03;;
62798;SDS011;48842;51.046;13.796;2023-02-20T02:02:12;5.00;;;4.60;;
62798;SDS011;48842;51.046;13.796;2023-02-20T02:04:38;4.60;;;3.90;;
62798;SDS011;48842;51.046;13.796;2023-02-20T02:07:06;11.87;;;4.30;;
62798;SDS011;48842;51.046;13.796;2023-02-20T02:09:46;4.13;;;3.70;;
62798;SDS011;48842;51.046;13.796;2023-02-20T02:12:17;4.13;;;3.83;;
62798;SDS011;48842;51.046;13.796;2023-02-20T02:14:42;4.60;;;3.87;;
62798;SDS011;48842;51.046;13.796;2023-02-20T02:25:41;4.10;;;3.70;;
62798;SDS011;48842;51.046;13.796;2023-02-20T02:28:17;5.87;;;3.80;;
62798;SDS011;48842;51.046;13.796;2023-02-20T02:34:26;4.80;;;3.73;;
62798;SDS011;48842;51.046;13.796;2023-02-20T02:37:14;5.00;;;3.70;;
62798;SDS011;48842;51.046;13.796;2023-02-20T02:42:59;6.17;;;4.07;;
62798;SDS011;48842;51.046;13.796;2023-02-20T02:45:34;4.60;;;3.90;;
62798;SDS011;48842;51.046;13.796;2023-02-20T02:48:18;5.00;;;3.63;;
62798;SDS011;48842;51.046;13.796;2023-02-20T02:50:50;4.60;;;3.40;;
62798;SDS011;48842;51.046;13.796;2023-02-20T02:53:20;8.23;;;3.77;;
62798;SDS011;48842;51.046;13.796;2023-02-20T02:55:45;3.83;;;3.53;;
62798;SDS011;48842;51.046;13.796;2023-02-20T02:58:11;7.30;;;4.20;;
62798;SDS011;48842;51.046;13.796;2023-02-20T03:00:43;4.20;;;3.80;;
62798;SDS011;48842;51.046;13.796;2023-02-20T03:03:25;4.70;;;3.60;;
62798;SDS011;48842;51.046;13.796;2023-02-20T03:06:08;3.93;;;3.53;;
62798;SDS011;48842;51.046;13.796;2023-02-20T03:08:58;3.47;;;3.23;;
62798;SDS011;48842;51.046;13.796;2023-02-20T03:11:30;5.90;;;4.30;;
62798;SDS011;48842;51.046;13.796;2023-02-20T03:14:01;4.63;;;3.73;;
62798;SDS011;48842;51.046;13.796;2023-02-20T03:16:56;4.33;;;4.00;;
62798;SDS011;48842;51.046;13.796;2023-02-20T03:19:48;4.60;;;4.20;;
62798;SDS011;48842;51.046;13.796;2023-02-20T03:22:23;4.17;;;3.83;;
62798;SDS011;48842;51.046;13.796;2023-02-20T03:24:53;5.57;;;4.10;;
62798;SDS011;48842;51.046;13.796;2023-02-20T03:27:29;5.03;;;4.53;;
62798;SDS011;48842;51.046;13.796;2023-02-20T03:30:02;5.80;;;4.20;;
62798;SDS011;48842;51.046;13.796;2023-02-20T03:32:31;5.30;;;4.50;;
62798;SDS011;48842;51.046;13.796;2023-02-20T03:35:16;4.90;;;4.27;;
62798;SDS011;48842;51.046;13.796;2023-02-20T03:38:02;4.77;;;4.30;;
62798;SDS011;48842;51.046;13.796;2023-02-20T03:40:50;4.43;;;4.03;;
62798;SDS011;48842;51.046;13.796;2023-02-20T03:43:35;5.50;;;5.00;;
62798;SDS011;48842;51.046;13.796;2023-02-20T03:46:03;5.47;;;5.00;;
62798;SDS011;48842;51.046;13.796;2023-02-20T03:48:57;6.50;;;5.20;;
62798;SDS011;48842;51.046;13.796;2023-02-20T03:51:24;5.80;;;5.40;;
62798;SDS011;48842;51.046;13.796;2023-02-20T03:53:50;6.67;;;5.97;;
62798;SDS011;48842;51.046;13.796;2023-02-20T03:56:18;5.00;;;4.63;;
62798;SDS011;48842;51.046;13.796;2023-02-20T03:58:53;8.80;;;5.33;;
62798;SDS011;48842;51.046;13.796;2023-02-20T04:01:23;6.27;;;5.63;;
62798;SDS011;48842;51.046;13.796;2023-02-20T04:03:51;6.20;;;5.60;;
62798;SDS011;48842;51.046;13.796;2023-02-20T04:06:20;10.50;;;5.43;;
62798;SDS011;48842;51.046;13.796;2023-02-20T04:08:54;5.00;;;4.70;;
62798;SDS011;48842;51.046;13.796;2023-02-20T04:11:26;6.60;;;6.00;;
62798;SDS011;48842;51.046;13.796;2023-02-20T04:13:55;5.53;;;5.07;;
62798;SDS011;48842;51.046;13.796;2023-02-20T04:16:21;5.27;;;4.87;;
62798;SDS011;48842;51.046;13.796;2023-02-20T04:18:48;5.80;;;5.30;;
62798;SDS011;48842;51.046;13.796;2023-02-20T04:21:19;5.43;;;5.03;;
62798;SDS011;48842;51.046;13.796;2023-02-20T04:23:54;5.20;;;4.70;;
62798;SDS011;48842;51.046;13.796;2023-02-20T04:26:26;7.07;;;5.17;;
62798;SDS011;48842;51.046;13.796;2023-02-20T04:28:52;5.57;;;5.07;;
62798;SDS011;48842;51.046;13.796;2023-02-20T04:31:18;5.07;;;4.67;;
62798;SDS011;48842;51.046;13.796;2023-02-20T04:33:45;5.87;;;5.30;;
62798;SDS011;48842;51.046;13.796;2023-02-20T04:36:10;5.43;;;5.00;;
62798;SDS011;48842;51.046;13.796;2023-02-20T04:38:36;5.07;;;4.67;;
62798;SDS011;48842;51.046;13.796;2023-02-20T04:41:01;4.73;;;4.33;;
62798;SDS011;48842;51.046;13.796;2023-02-20T04:43:26;4.97;;;4.57;;
62798;SDS011;48842;51.046;13.796;2023-02-20T04:45:51;6.17;;;5.57;;
62798;SDS011;48842;51.046;13.796;2023-02-20T04:48:17;6.30;;;5.70;;
62798;SDS011;48842;51.046;13.796;2023-02-20T04:50:42;7.23;;;6.20;;
62798;SDS011;48842;51.046;13.796;2023-02-20T04:53:07;6.00;;;5.50;;
62798;SDS011;48842;51.046;13.796;2023-02-20T04:55:33;6.33;;;5.70;;
62798;SDS011;48842;51.046;13.796;2023-02-20T04:57:58;5.50;;;5.00;;
62798;SDS011;48842;51.046;13.796;2023-02-20T05:00:24;7.17;;;6.57;;
62798;SDS011;48842;51.046;13.796;2023-02-20T05:02:50;7.00;;;5.87;;
62798;SDS011;48842;51.046;13.796;2023-02-20T05:05:18;7.30;;;6.10;;
62798;SDS011;48842;51.046;13.796;2023-02-20T05:07:57;7.00;;;6.23;;
62798;SDS011;48842;51.046;13.796;2023-02-20T05:10:23;7.73;;;6.93;;
62798;SDS011;48842;51.046;13.796;2023-02-20T05:12:51;8.60;;;6.80;;
62798;SDS011;48842;51.046;13.796;2023-02-20T05:15:16;7.57;;;6.87;;
62798;SDS011;48842;51.046;13.796;2023-02-20T05:17:42;6.73;;;6.13;;
62798;SDS011;48842;51.046;13.796;2023-02-20T05:20:08;8.20;;;7.40;;
62798;SDS011;48842;51.046;13.796;2023-02-20T05:22:34;7.27;;;6.57;;
62798;SDS011;48842;51.046;13.796;2023-02-20T05:24:59;8.63;;;7.47;;
62798;SDS011;48842;51.046;13.796;2023-02-20T05:27:25;7.60;;;6.93;;
62798;SDS011;48842;51.046;13.796;2023-02-20T05:29:52;7.73;;;7.03;;
62798;SDS011;48842;51.046;13.796;2023-02-20T05:32:20;9.37;;;7.57;;
62798;SDS011;48842;51.046;13.796;2023-02-20T05:34:47;7.97;;;7.17;;
62798;SDS011;48842;51.046;13.796;2023-02-20T05:37:14;7.83;;;7.07;;
62798;SDS011;48842;51.046;13.796;2023-02-20T05:39:41;9.77;;;7.63;;
62798;SDS011;48842;51.046;13.796;2023-02-20T05:42:06;7.57;;;6.87;;
62798;SDS011;48842;51.046;13.796;2023-02-20T05:44:32;7.77;;;7.00;;
62798;SDS011;48842;51.046;13.796;2023-02-20T05:46:58;8.53;;;7.40;;
62798;SDS011;48842;51.046;13.796;2023-02-20T05:49:24;8.37;;;7.50;;
62798;SDS011;48842;51.046;13.796;2023-02-20T05:51:50;10.87;;;7.93;;
62798;SDS011;48842;51.046;13.796;2023-02-20T05:54:16;7.97;;;7.20;;
62798;SDS011;48842;51.046;13.796;2023-02-20T05:56:43;9.63;;;8.00;;
62798;SDS011;48842;51.046;13.796;2023-02-20T05:59:09;8.17;;;7.37;;
62798;SDS011;48842;51.046;13.796;2023-02-20T06:01:35;9.00;;;6.40;;
62798;SDS011;48842;51.046;13.796;2023-02-20T06:04:01;9.87;;;7.43;;
62798;SDS011;48842;51.046;13.796;2023-02-20T06:06:33;8.13;;;7.30;;
62798;SDS011;48842;51.046;13.796;2023-02-20T06:09:01;7.97;;;7.17;;
62798;SDS011;48842;51.046;13.796;2023-02-20T06:11:26;10.70;;;7.13;;
62798;SDS011;48842;51.046;13.796;2023-02-20T06:13:52;9.00;;;7.03;;
62798;SDS011;48842;51.046;13.796;2023-02-20T06:16:21;9.10;;;6.67;;
62798;SDS011;48842;51.046;13.796;2023-02-20T06:18:51;9.00;;;7.57;;
62798;SDS011;48842;51.046;13.796;2023-02-20T06:21:17;8.20;;;7.23;;
62798;SDS011;48842;51.046;13.796;2023-02-20T06:23:43;10.90;;;7.17;;
62798;SDS011;48842;51.046;13.796;2023-02-20T06:26:11;10.60;;;6.60;;
62798;SDS011;48842;51.046;13.796;2023-02-20T06:28:37;8.67;;;7.77;;
62798;SDS011;48842;51.046;13.796;2023-02-20T06:31:04;8.20;;;6.97;;
62798;SDS011;48842;51.046;13.796;2023-02-20T06:33:30;6.57;;;5.90;;
62798;SDS011;48842;51.046;13.796;2023-02-20T06:35:55;7.60;;;6.77;;
62798;SDS011;48842;51.046;13.796;2023-02-20T06:38:21;7.30;;;6.57;;
62798;SDS011;48842;51.046;13.796;2023-02-20T06:40:46;7.03;;;6.30;;
62798;SDS011;48842;51.046;13.796;2023-02-20T06:43:12;7.37;;;6.60;;
62798;SDS011;48842;51.046;13.796;2023-02-20T06:45:37;7.77;;;6.97;;
62798;SDS011;48842;51.046;13.796;2023-02-20T06:48:02;6.10;;;5.47;;
62798;SDS011;48842;51.046;13.796;2023-02-20T06:50:28;7.23;;;6.33;;
62798;SDS011;48842;51.046;13.796;2023-02-20T06:52:53;7.70;;;6.80;;
62798;SDS011;48842;51.046;13.796;2023-02-20T06:55:18;9.97;;;6.00;;
62798;SDS011;48842;51.046;13.796;2023-02-20T06:57:44;19.93;;;6.07;;
62798;SDS011;48842;51.046;13.796;2023-02-20T07:00:09;25.73;;;6.07;;
62798;SDS011;48842;51.046;13.796;2023-02-20T07:02:35;10.93;;;5.63;;
62798;SDS011;48842;51.046;13.796;2023-02-20T07:05:01;6.87;;;6.23;;
62798;SDS011;48842;51.046;13.796;2023-02-20T07:07:27;11.70;;;6.33;;
62798;SDS011;48842;51.046;13.796;2023-02-20T07:09:52;5.37;;;4.87;;
62798;SDS011;48842;51.046;13.796;2023-02-20T07:12:17;5.63;;;5.13;;
62798;SDS011;48842;51.046;13.796;2023-02-20T07:14:43;5.77;;;5.27;;
62798;SDS011;48842;51.046;13.796;2023-02-20T07:17:08;6.03;;;5.47;;
62798;SDS011;48842;51.046;13.796;2023-02-20T07:19:33;5.43;;;4.97;;
62798;SDS011;48842;51.046;13.796;2023-02-20T07:21:58;6.23;;;5.63;;
62798;SDS011;48842;51.046;13.796;2023-02-20T07:24:24;5.87;;;4.60;;
62798;SDS011;48842;51.046;13.796;2023-02-20T07:26:49;5.00;;;4.40;;
62798;SDS011;48842;51.046;13.796;2023-02-20T07:29:14;6.00;;;5.37;;
62798;SDS011;48842;51.046;13.796;2023-02-20T07:31:39;5.93;;;4.90;;
62798;SDS011;48842;51.046;13.796;2023-02-20T07:34:05;5.20;;;4.70;;
62798;SDS011;48842;51.046;13.796;2023-02-20T07:36:30;5.63;;;4.67;;
62798;SDS011;48842;51.046;13.796;2023-02-20T07:38:57;4.10;;;3.80;;
62798;SDS011;48842;51.046;13.796;2023-02-20T07:41:24;21.83;;;4.30;;
62798;SDS011;48842;51.046;13.796;2023-02-20T07:43:53;4.90;;;4.37;;
62798;SDS011;48842;51.046;13.796;2023-02-20T07:46:18;5.17;;;4.67;;
62798;SDS011;48842;51.046;13.796;2023-02-20T07:48:43;5.93;;;5.30;;
62798;SDS011;48842;51.046;13.796;2023-02-20T07:51:09;5.47;;;4.97;;
62798;SDS011;48842;51.046;13.796;2023-02-20T07:53:34;8.63;;;5.43;;
62798;SDS011;48842;51.046;13.796;2023-02-20T07:55:59;4.60;;;4.23;;
62798;SDS011;48842;51.046;13.796;2023-02-20T07:58:24;4.40;;;4.10;;
62798;SDS011;48842;51.046;13.796;2023-02-20T08:00:50;5.10;;;4.60;;
62798;SDS011;48842;51.046;13.796;2023-02-20T08:03:17;3.90;;;3.60;;
62798;SDS011;48842;51.046;13.796;2023-02-20T08:05:43;6.13;;;4.20;;
62798;SDS011;48842;51.046;13.796;2023-02-20T08:08:14;4.43;;;4.03;;
62798;SDS011;48842;51.046;13.796;2023-02-20T08:10:39;3.90;;;3.70;;
62798;SDS011;48842;51.046;13.796;2023-02-20T08:13:04;3.97;;;3.67;;
62798;SDS011;48842;51.046;13.796;2023-02-20T08:15:29;4.70;;;4.30;;
62798;SDS011;48842;51.046;13.796;2023-02-20T08:17:55;4.73;;;4.20;;
62798;SDS011;48842;51.046;13.796;2023-02-20T08:20:20;3.97;;;3.77;;
62798;SDS011;48842;51.046;13.796;2023-02-20T08:22:47;5.23;;;4.87;;
62798;SDS011;48842;51.046;13.796;2023-02-20T08:25:15;5.07;;;4.67;;
62798;SDS011;48842;51.046;13.796;2023-02-20T08:27:42;5.97;;;5.43;;
62798;SDS011;48842;51.046;13.796;2023-02-20T08:30:10;4.47;;;3.87;;
62798;SDS011;48842;51.046;13.796;2023-02-20T08:32:38;3.67;;;3.47;;
62798;SDS011;48842;51.046;13.796;2023-02-20T08:35:03;4.27;;;3.87;;
62798;SDS011;48842;51.046;13.796;2023-02-20T08:37:29;4.67;;;4.37;;
62798;SDS011;48842;51.046;13.796;2023-02-20T08:39:54;4.67;;;4.30;;
62798;SDS011;48842;51.046;13.796;2023-02-20T08:42:19;4.47;;;4.17;;
62798;SDS011;48842;51.046;13.796;2023-02-20T08:44:44;9.07;;;6.30;;
62798;SDS011;48842;51.046;13.796;2023-02-20T08:47:10;9.53;;;4.90;;
62798;SDS011;48842;51.046;13.796;2023-02-20T08:49:35;7.07;;;5.47;;
62798;SDS011;48842;51.046;13.796;2023-02-20T08:52:00;4.47;;;3.80;;
62798;SDS011;48842;51.046;13.796;2023-02-20T08:54:29;4.20;;;4.00;;
62798;SDS011;48842;51.046;13.796;2023-02-20T08:56:54;4.40;;;4.00;;
62798;SDS011;48842;51.046;13.796;2023-02-20T08:59:19;8.30;;;6.10;;
62798;SDS011;48842;51.046;13.796;2023-02-20T09:01:45;3.33;;;3.13;;
62798;SDS011;48842;51.046;13.796;2023-02-20T09:04:10;4.47;;;4.07;;
62798;SDS011;48842;51.046;13.796;2023-02-20T09:06:36;8.33;;;5.03;;
62798;SDS011;48842;51.046;13.796;2023-02-20T09:09:01;4.70;;;4.10;;
62798;SDS011;48842;51.046;13.796;2023-02-20T09:11:27;5.87;;;5.27;;
62798;SDS011;48842;51.046;13.796;2023-02-20T09:13:52;4.30;;;3.83;;
62798;SDS011;48842;51.046;13.796;2023-02-20T09:16:19;4.30;;;3.90;;
62798;SDS011;48842;51.046;13.796;2023-02-20T09:18:46;3.77;;;3.57;;
62798;SDS011;48842;51.046;13.796;2023-02-20T09:21:12;3.63;;;3.37;;
62798;SDS011;48842;51.046;13.796;2023-02-20T09:23:39;4.87;;;4.40;;
62798;SDS011;48842;51.046;13.796;2023-02-20T09:26:04;3.00;;;2.90;;
62798;SDS011;48842;51.046;13.796;2023-02-20T09:28:30;3.30;;;3.00;;
62798;SDS011;48842;51.046;13.796;2023-02-20T09:30:55;3.57;;;3.27;;
62798;SDS011;48842;51.046;13.796;2023-02-20T09:33:21;4.30;;;3.73;;
62798;SDS011;48842;51.046;13.796;2023-02-20T09:35:47;3.83;;;3.40;;
62798;SDS011;48842;51.046;13.796;2023-02-20T09:38:13;2.80;;;2.67;;
62798;SDS011;48842;51.046;13.796;2023-02-20T09:40:39;3.07;;;2.87;;
62798;SDS011;48842;51.046;13.796;2023-02-20T09:45:59;3.53;;;2.40;;
62798;SDS011;48842;51.046;13.796;2023-02-20T09:51:21;2.80;;;2.60;;
62798;SDS011;48842;51.046;13.796;2023-02-20T09:53:51;8.87;;;2.47;;
62798;SDS011;48842;51.046;13.796;2023-02-20T09:56:27;3.83;;;2.50;;
62798;SDS011;48842;51.046;13.796;2023-02-20T10:02:02;2.50;;;2.30;;
62798;SDS011;48842;51.046;13.796;2023-02-20T10:04:37;4.20;;;2.40;;
62798;SDS011;48842;51.046;13.796;2023-02-20T10:07:18;4.13;;;2.20;;
62798;SDS011;48842;51.046;13.796;2023-02-20T10:09:53;3.83;;;2.20;;
62798;SDS011;48842;51.046;13.796;2023-02-20T10:12:28;2.30;;;2.20;;
62798;SDS011;48842;51.046;13.796;2023-02-20T10:17:41;1.87;;;1.77;;
62798;SDS011;48842;51.046;13.796;2023-02-20T10:20:21;2.13;;;2.03;;
62798;SDS011;48842;51.046;13.796;2023-02-20T10:23:17;1.73;;;1.63;;
62798;SDS011;48842;51.046;13.796;2023-02-20T10:25:53;4.73;;;2.10;;
62798;SDS011;48842;51.046;13.796;2023-02-20T10:28:21;2.33;;;2.13;;
62798;SDS011;48842;51.046;13.796;2023-02-20T10:30:57;1.90;;;1.80;;
62798;SDS011;48842;51.046;13.796;2023-02-20T10:36:16;2.17;;;1.97;;
62798;SDS011;48842;51.046;13.796;2023-02-20T10:41:38;2.20;;;2.10;;
62798;SDS011;48842;51.046;13.796;2023-02-20T10:44:14;3.37;;;1.93;;
62798;SDS011;48842;51.046;13.796;2023-02-20T10:46:47;1.97;;;1.77;;
62798;SDS011;48842;51.046;13.796;2023-02-20T10:49:24;1.80;;;1.70;;
62798;SDS011;48842;51.046;13.796;2023-02-20T10:51:58;4.10;;;2.70;;
62798;SDS011;48842;51.046;13.796;2023-02-20T10:54:29;2.20;;;1.60;;
62798;SDS011;48842;51.046;13.796;2023-02-20T10:57:01;1.63;;;1.53;;
62798;SDS011;48842;51.046;13.796;2023-02-20T10:59:37;1.70;;;1.60;;
62798;SDS011;48842;51.046;13.796;2023-02-20T11:02:17;2.77;;;1.83;;
62798;SDS011;48842;51.046;13.796;2023-02-20T11:04:47;2.47;;;2.27;;
62798;SDS011;48842;51.046;13.796;2023-02-20T11:07:17;2.83;;;1.60;;
62798;SDS011;48842;51.046;13.796;2023-02-20T11:09:43;2.43;;;2.10;;
62798;SDS011;48842;51.046;13.796;2023-02-20T11:15:19;2.40;;;2.30;;
62798;SDS011;48842;51.046;13.796;2023-02-20T11:17:48;2.20;;;1.93;;
62798;SDS011;48842;51.046;13.796;2023-02-20T11:22:56;2.50;;;2.27;;
62798;SDS011;48842;51.046;13.796;2023-02-20T11:25:29;2.17;;;2.07;;
62798;SDS011;48842;51.046;13.796;2023-02-20T11:28:06;3.50;;;1.70;;
62798;SDS011;48842;51.046;13.796;2023-02-20T11:30:38;3.33;;;1.70;;
62798;SDS011;48842;51.046;13.796;2023-02-20T11:36:27;3.37;;;2.57;;
62798;SDS011;48842;51.046;13.796;2023-02-20T11:39:02;1.80;;;1.70;;
62798;SDS011;48842;51.046;13.796;2023-02-20T11:41:38;1.77;;;1.60;;
62798;SDS011;48842;51.046;13.796;2023-02-20T11:46:34;1.90;;;1.80;;
62798;SDS011;48842;51.046;13.796;2023-02-20T11:49:02;2.43;;;1.50;;
62798;SDS011;48842;51.046;13.796;2023-02-20T11:51:30;1.97;;;1.77;;
62798;SDS011;48842;51.046;13.796;2023-02-20T11:54:15;1.60;;;1.50;;
62798;SDS011;48842;51.046;13.796;2023-02-20T11:57:04;1.63;;;1.30;;
62798;SDS011;48842;51.046;13.796;2023-02-20T11:59:49;2.23;;;1.40;;
62798;SDS011;48842;51.046;13.796;2023-02-20T12:05:23;5.90;;;2.40;;
62798;SDS011;48842;51.046;13.796;2023-02-20T12:10:09;1.70;;;1.60;;
62798;SDS011;48842;51.046;13.796;2023-02-20T12:12:45;1.53;;;1.43;;
62798;SDS011;48842;51.046;13.796;2023-02-20T12:15:12;1.40;;;1.30;;
62798;SDS011;48842;51.046;13.796;2023-02-20T12:20:33;2.10;;;1.60;;
62798;SDS011;48842;51.046;13.796;2023-02-20T12:23:14;4.00;;;2.20;;
62798;SDS011;48842;51.046;13.796;2023-02-20T12:28:45;1.70;;;1.23;;
62798;SDS011;48842;51.046;13.796;2023-02-20T12:37:19;1.10;;;0.80;;
62798;SDS011;48842;51.046;13.796;2023-02-20T12:42:47;2.10;;;1.37;;
62798;SDS011;48842;51.046;13.796;2023-02-20T12:45:26;1.90;;;1.10;;
62798;SDS011;48842;51.046;13.796;2023-02-20T12:48:06;2.93;;;1.27;;
62798;SDS011;48842;51.046;13.796;2023-02-20T12:53:19;2.10;;;1.00;;
62798;SDS011;48842;51.046;13.796;2023-02-20T12:56:02;2.27;;;1.60;;
62798;SDS011;48842;51.046;13.796;2023-02-20T12:58:43;2.60;;;1.10;;
62798;SDS011;48842;51.046;13.796;2023-02-20T13:01:13;2.03;;;1.30;;
62798;SDS011;48842;51.046;13.796;2023-02-20T13:03:48;4.20;;;1.27;;
62798;SDS011;48842;51.046;13.796;2023-02-20T13:06:19;1.30;;;1.20;;
62798;SDS011;48842;51.046;13.796;2023-02-20T13:11:39;2.00;;;1.20;;
62798;SDS011;48842;51.046;13.796;2023-02-20T13:14:16;1.30;;;1.00;;
62798;SDS011;48842;51.046;13.796;2023-02-20T13:19:43;1.53;;;1.20;;
62798;SDS011;48842;51.046;13.796;2023-02-20T13:22:14;1.73;;;0.80;;
62798;SDS011;48842;51.046;13.796;2023-02-20T13:24:40;1.00;;;1.00;;
62798;SDS011;48842;51.046;13.796;2023-02-20T13:27:06;1.33;;;1.23;;
62798;SDS011;48842;51.046;13.796;2023-02-20T13:29:34;5.23;;;2.30;;
62798;SDS011;48842;51.046;13.796;2023-02-20T13:32:02;1.83;;;1.73;;
62798;SDS011;48842;51.046;13.796;2023-02-20T13:34:46;11.53;;;1.20;;
62798;SDS011;48842;51.046;13.796;2023-02-20T13:45:37;1.07;;;0.93;;
62798;SDS011;48842;51.046;13.796;2023-02-20T13:51:21;2.70;;;2.13;;
62798;SDS011;48842;51.046;13.796;2023-02-20T13:58:40;4.20;;;2.13;;
62798;SDS011;48842;51.046;13.796;2023-02-20T14:01:05;1.30;;;1.20;;
62798;SDS011;48842;51.046;13.796;2023-02-20T14:03:32;2.80;;;1.67;;
62798;SDS011;48842;51.046;13.796;2023-02-20T14:06:08;3.83;;;2.50;;
62798;SDS011;48842;51.046;13.796;2023-02-20T14:08:36;2.73;;;2.13;;
62798;SDS011;48842;51.046;13.796;2023-02-20T14:11:09;1.73;;;1.60;;
62798;SDS011;48842;51.046;13.796;2023-02-20T14:13:55;2.10;;;1.57;;
62798;SDS011;48842;51.046;13.796;2023-02-20T14:16:29;1.77;;;1.50;;
62798;SDS011;48842;51.046;13.796;2023-02-20T14:19:00;5.13;;;1.83;;
62798;SDS011;48842;51.046;13.796;2023-02-20T14:21:29;2.13;;;1.03;;
62798;SDS011;48842;51.046;13.796;2023-02-20T14:23:55;4.40;;;1.70;;
62798;SDS011;48842;51.046;13.796;2023-02-20T14:28:50;2.60;;;1.57;;
62798;SDS011;48842;51.046;13.796;2023-02-20T14:31:24;2.97;;;1.90;;
62798;SDS011;48842;51.046;13.796;2023-02-20T14:33:52;1.60;;;1.50;;
62798;SDS011;48842;51.046;13.796;2023-02-20T14:36:27;1.30;;;1.20;;
62798;SDS011;48842;51.046;13.796;2023-02-20T14:39:04;2.10;;;1.40;;
62798;SDS011;48842;51.046;13.796;2023-02-20T14:41:53;3.57;;;1.07;;
62798;SDS011;48842;51.046;13.796;2023-02-20T14:44:21;2.20;;;1.63;;
62798;SDS011;48842;51.046;13.796;2023-02-20T14:46:49;1.73;;;1.63;;
62798;SDS011;48842;51.046;13.796;2023-02-20T14:49:22;1.67;;;1.57;;
62798;SDS011;48842;51.046;13.796;2023-02-20T14:51:49;4.00;;;1.47;;
62798;SDS011;48842;51.046;13.796;2023-02-20T14:56:48;4.97;;;1.70;;
62798;SDS011;48842;51.046;13.796;2023-02-20T14:59:21;2.00;;;1.30;;
62798;SDS011;48842;51.046;13.796;2023-02-20T15:02:18;2.40;;;1.10;;
62798;SDS011;48842;51.046;13.796;2023-02-20T15:04:50;1.40;;;1.30;;
62798;SDS011;48842;51.046;13.796;2023-02-20T15:07:21;2.50;;;1.30;;
62798;SDS011;48842;51.046;13.796;2023-02-20T15:09:50;5.87;;;2.50;;
62798;SDS011;48842;51.046;13.796;2023-02-20T15:12:22;3.97;;;1.97;;
62798;SDS011;48842;51.046;13.796;2023-02-20T15:14:56;1.63;;;1.53;;
62798;SDS011;48842;51.046;13.796;2023-02-20T15:17:26;3.00;;;1.87;;
62798;SDS011;48842;51.046;13.796;2023-02-20T15:19:53;2.10;;;1.90;;
62798;SDS011;48842;51.046;13.796;2023-02-20T15:22:31;3.70;;;1.70;;
62798;SDS011;48842;51.046;13.796;2023-02-20T15:25:12;5.13;;;2.00;;
62798;SDS011;48842;51.046;13.796;2023-02-20T15:30:31;4.23;;;1.70;;
62798;SDS011;48842;51.046;13.796;2023-02-20T15:32:56;2.30;;;1.90;;
62798;SDS011;48842;51.046;13.796;2023-02-20T15:35:23;3.00;;;2.00;;
62798;SDS011;48842;51.046;13.796;2023-02-20T15:38:00;2.30;;;1.83;;
62798;SDS011;48842;51.046;13.796;2023-02-20T15:40:28;2.20;;;2.00;;
62798;SDS011;48842;51.046;13.796;2023-02-20T15:42:55;2.57;;;2.40;;
62798;SDS011;48842;51.046;13.796;2023-02-20T15:45:24;5.17;;;3.50;;
62798;SDS011;48842;51.046;13.796;2023-02-20T15:47:51;7.70;;;2.20;;
62798;SDS011;48842;51.046;13.796;2023-02-20T15:50:16;4.07;;;3.67;;
62798;SDS011;48842;51.046;13.796;2023-02-20T15:52:42;2.17;;;1.97;;
62798;SDS011;48842;51.046;13.796;2023-02-20T15:55:09;8.40;;;1.40;;
62798;SDS011;48842;51.046;13.796;2023-02-20T15:57:41;1.83;;;1.73;;
62798;SDS011;48842;51.046;13.796;2023-02-20T16:00:06;2.33;;;1.47;;
62798;SDS011;48842;51.046;13.796;2023-02-20T16:02:32;1.50;;;1.40;;
62798;SDS011;48842;51.046;13.796;2023-02-20T16:04:57;1.63;;;1.50;;
62798;SDS011;48842;51.046;13.796;2023-02-20T16:07:23;1.80;;;1.53;;
62798;SDS011;48842;51.046;13.796;2023-02-20T16:09:48;6.83;;;1.47;;
62798;SDS011;48842;51.046;13.796;2023-02-20T16:12:18;3.50;;;2.07;;
62798;SDS011;48842;51.046;13.796;2023-02-20T16:14:49;5.27;;;1.50;;
62798;SDS011;48842;51.046;13.796;2023-02-20T16:17:27;2.00;;;1.77;;
62798;SDS011;48842;51.046;13.796;2023-02-20T16:19:55;3.00;;;1.57;;
62798;SDS011;48842;51.046;13.796;2023-02-20T16:22:20;6.43;;;4.77;;
62798;SDS011;48842;51.046;13.796;2023-02-20T16:24:46;5.50;;;2.57;;
62798;SDS011;48842;51.046;13.796;2023-02-20T16:27:16;5.20;;;3.93;;